createdAt,value
2023-05-02T04:55:10.420Z,4.95
2023-05-02T04:58:14.111Z,4.00
2023-05-02T05:01:18.152Z,4.15
2023-05-02T05:04:22.043Z,4.38
2023-05-02T05:07:25.728Z,4.30
2023-05-02T05:10:31.008Z,4.10
2023-05-02T05:13:36.010Z,4.00
2023-05-02T05:16:42.154Z,3.72
2023-05-02T05:19:45.243Z,4.13
2023-05-02T05:22:48.410Z,4.30
2023-05-02T05:25:53.152Z,4.45
2023-05-02T05:29:05.086Z,4.70
2023-05-02T05:32:08.487Z,4.40
2023-05-02T05:35:14.025Z,4.28
2023-05-02T05:38:19.343Z,4.88
2023-05-02T05:41:25.764Z,4.20
2023-05-02T05:44:28.986Z,4.27
2023-05-02T05:47:32.437Z,4.10
2023-05-02T05:51:08.864Z,3.67
2023-05-02T05:54:18.311Z,3.88
2023-05-02T05:57:23.330Z,3.90
2023-05-02T06:00:30.978Z,3.90
2023-05-02T06:03:36.658Z,4.60
2023-05-02T06:06:41.268Z,4.30
2023-05-02T06:09:44.703Z,3.97
2023-05-02T06:12:49.429Z,4.35
2023-05-02T06:15:52.731Z,3.73
2023-05-02T06:18:56.373Z,3.95
2023-05-02T06:22:02.709Z,3.80
2023-05-02T06:25:07.482Z,3.55
2023-05-02T06:28:14.269Z,3.00
2023-05-02T06:31:17.528Z,2.97
2023-05-02T06:34:20.699Z,3.10
2023-05-02T06:37:23.958Z,3.20
2023-05-02T06:40:27.098Z,4.65
2023-05-02T06:43:34.104Z,3.25
2023-05-02T06:46:38.392Z,3.10
2023-05-02T06:49:41.768Z,3.50
2023-05-02T06:52:58.157Z,3.30
2023-05-02T06:56:11.664Z,3.10
2023-05-02T06:59:30.722Z,3.33
2023-05-02T07:02:34.384Z,3.13
2023-05-02T07:05:41.357Z,3.20
2023-05-02T07:08:45.367Z,2.95
2023-05-02T07:11:48.688Z,2.65
2023-05-02T07:14:53.374Z,3.00
2023-05-02T07:17:56.577Z,2.70
2023-05-02T07:21:01.428Z,3.20
2023-05-02T07:24:04.916Z,2.72
2023-05-02T07:27:08.026Z,3.17
2023-05-02T07:30:15.006Z,3.05
2023-05-02T07:33:18.242Z,2.60
2023-05-02T07:36:22.699Z,2.90
2023-05-02T07:39:26.698Z,2.92
2023-05-02T07:42:32.998Z,3.17
2023-05-02T07:45:39.877Z,2.58
2023-05-02T07:48:44.516Z,3.03
2023-05-02T07:51:47.933Z,3.15
2023-05-02T07:54:51.566Z,3.03
2023-05-02T07:57:56.656Z,2.60
2023-05-02T08:01:01.361Z,2.90
2023-05-02T08:04:05.070Z,2.90
2023-05-02T08:07:10.771Z,3.03
2023-05-02T08:10:13.861Z,3.10
2023-05-02T08:13:17.963Z,2.90
2023-05-02T08:16:23.094Z,2.70
2023-05-02T08:19:26.658Z,2.90
2023-05-02T08:22:29.728Z,2.78
2023-05-02T08:25:33.456Z,3.10
2023-05-02T08:28:52.757Z,2.83
2023-05-02T08:31:58.409Z,2.60
2023-05-02T08:35:17.425Z,2.80
2023-05-02T08:38:31.149Z,2.83
2023-05-02T08:41:34.950Z,2.70
2023-05-02T08:44:38.739Z,3.20
2023-05-02T08:47:44.753Z,2.60
2023-05-02T08:50:48.554Z,2.70
2023-05-02T08:53:53.784Z,2.63
2023-05-02T08:56:59.662Z,2.45
2023-05-02T09:00:03.443Z,2.60
2023-05-02T09:03:23.759Z,2.63
2023-05-02T09:06:28.322Z,2.33
2023-05-02T09:09:32.864Z,3.05
2023-05-02T09:12:36.294Z,2.75
2023-05-02T09:15:39.847Z,2.60
2023-05-02T09:18:47.273Z,2.78
2023-05-02T09:21:50.939Z,3.37
2023-05-02T09:24:56.259Z,2.60
2023-05-02T09:28:01.642Z,2.50
2023-05-02T09:31:08.989Z,2.78
2023-05-02T09:34:15.390Z,2.40
2023-05-02T09:37:37.044Z,2.83
2023-05-02T09:40:40.792Z,2.78
2023-05-02T09:43:44.887Z,3.13
2023-05-02T09:46:49.660Z,2.88
2023-05-02T09:49:54.185Z,2.65
2023-05-02T09:53:03.207Z,2.60
2023-05-02T09:56:11.811Z,2.70
2023-05-02T09:59:21.555Z,2.80
2023-05-02T10:02:26.160Z,2.75
2023-05-02T10:05:31.620Z,2.70
2023-05-02T10:08:35.767Z,2.70
2023-05-02T10:11:42.227Z,2.88
2023-05-02T10:14:50.818Z,3.00
2023-05-02T10:21:38.907Z,3.25
2023-05-02T10:24:43.657Z,2.90
2023-05-02T10:27:47.616Z,2.53
2023-05-02T10:30:52.401Z,2.58
2023-05-02T10:33:58.927Z,2.65
2023-05-02T10:37:04.877Z,3.00
2023-05-02T10:40:12.555Z,2.60
2023-05-02T10:43:19.792Z,2.60
2023-05-02T10:46:35.227Z,2.33
2023-05-02T10:49:51.347Z,2.78
2023-05-02T10:53:57.980Z,2.90
2023-05-02T10:57:22.058Z,2.43
2023-05-02T11:00:31.713Z,3.33
2023-05-02T11:03:56.374Z,2.90
2023-05-02T11:07:20.283Z,2.40
2023-05-02T11:10:28.387Z,2.90
2023-05-02T11:13:53.786Z,2.37
2023-05-02T11:17:11.043Z,2.95
2023-05-02T11:20:23.013Z,2.80
2023-05-02T11:23:29.351Z,2.47
2023-05-02T11:26:32.966Z,2.90
2023-05-02T11:29:55.852Z,2.17
2023-05-02T11:33:21.095Z,2.58
2023-05-02T11:36:31.263Z,3.00
2023-05-02T11:39:34.965Z,3.33
2023-05-02T11:42:38.355Z,3.42
2023-05-02T11:45:49.291Z,2.97
2023-05-02T11:48:54.006Z,2.80
2023-05-02T11:51:57.237Z,3.05
2023-05-02T11:55:00.848Z,2.50
2023-05-02T11:58:04.240Z,2.70
2023-05-02T12:01:16.156Z,2.93
2023-05-02T12:04:24.025Z,2.90
2023-05-02T12:07:36.662Z,2.90
2023-05-02T12:10:39.840Z,2.60
2023-05-02T12:13:47.545Z,2.97
2023-05-02T12:16:54.468Z,2.77
2023-05-02T12:19:57.778Z,2.60
2023-05-02T12:23:01.708Z,2.70
2023-05-02T12:26:21.217Z,2.78
2023-05-02T12:29:39.156Z,2.75
2023-05-02T12:32:45.720Z,2.90
2023-05-02T12:35:50.155Z,3.10
2023-05-02T12:38:55.102Z,2.97
2023-05-02T12:41:58.397Z,3.47
2023-05-02T12:45:01.661Z,3.08
2023-05-02T12:48:19.237Z,2.70
2023-05-02T12:51:23.725Z,2.72
2023-05-02T12:54:27.615Z,2.97
2023-05-02T12:57:30.951Z,2.40
2023-05-02T13:00:35.988Z,3.70
2023-05-02T13:03:40.801Z,3.70
2023-05-02T13:06:57.850Z,3.47
2023-05-02T13:10:01.734Z,3.10
2023-05-02T13:13:05.412Z,2.97
2023-05-02T13:16:09.789Z,3.20
2023-05-02T13:19:15.121Z,3.90
2023-05-02T13:22:18.253Z,2.90
2023-05-02T13:25:21.437Z,3.47
2023-05-02T13:28:25.963Z,3.03
2023-05-02T13:31:29.428Z,3.03
2023-05-02T13:34:34.534Z,2.80
2023-05-02T13:37:37.736Z,3.47
2023-05-02T13:40:41.075Z,3.05
2023-05-02T13:43:44.330Z,3.15
2023-05-02T13:46:47.899Z,3.17
2023-05-02T13:49:52.642Z,3.10
2023-05-02T13:52:56.100Z,3.05
2023-05-02T13:55:59.232Z,3.40
2023-05-02T13:59:02.374Z,3.70
2023-05-02T14:02:07.180Z,2.90
2023-05-02T14:05:12.187Z,3.27
2023-05-02T14:08:18.417Z,3.45
2023-05-02T14:11:22.165Z,3.00
2023-05-02T14:14:25.527Z,3.00
2023-05-02T14:17:28.827Z,3.80
2023-05-02T14:20:33.479Z,3.63
2023-05-02T14:23:36.758Z,3.17
2023-05-02T14:26:42.474Z,3.08
